Benchland, Montana
Current Conditions -  °F | °C
As of 12:54 AM on Tuesday 27 Jan 2015 (Local Time) from KLWT Reporting Station
Clear Clear  
Wind Chill: 40°   Ceiling: Unl
Heat Index: 47°   Visibility: 10mi
Dew Point: 29°   Wind: 20mph
Humidity: 50%   Direction: 230°SW
Pressure: 29.93"   Gusts: NA
Location:  47.1096°N, 109.884°W
Report Text: KLWT 270754Z AUTO 23017KT 10SM CLR 08/M02 A2993 RMK AO2 SLP133 T00831017
Loading
Personal Weather Stations






























Interactive Weather Map New forecast layout! Learn more

10-Day Weather Forecast

Advertisements
Track Severe Weather on mobile